BGAC weather

Boggabilla Airstrip
Goondiwindi, New South Wales, Australia

Public forecast

Using degrees Celsius for public forecast. Weather courtesy of forecast.io.

METAR (pilot weather report)

Closest report is Moree Airport, 58.8 nm (108.9 km) SSW. Retrieved 2019/05/20 08:00 UTC (52 minutes ago):

YMOR 200800Z AUTO 01005KT 9999 // NCD 21/09 Q1024

TAF (pilot weather forecast)

Closest forecast is RAAF Base Amberley, 139.0 nm (257.4 km) ENE. Retrieved 2019/05/20 06:00 UTC (3 hours ago):

TAF YAMB 200511Z 2006/2024 10009KT 9999 -SHRA SCT035 BKN050 FM200900 15006KT 9999 -SHRA SCT020 BKN035 FM201400 18004KT 9999 -RA SCT015 BKN030 FM201900 VRB02KT 9999 MIFG FEW002 SCT030 INTER 2006/2012 4000 SHRA BKN025 PROB40 2018/2022 0800 FG SCT002